createdAt,value
2023-06-10T00:00:06.860Z,32.74
2023-06-10T00:01:06.844Z,32.75
2023-06-10T00:02:06.872Z,32.73
2023-06-10T00:03:06.936Z,32.75
2023-06-10T00:04:06.945Z,32.72
2023-06-10T00:05:07.167Z,32.73
2023-06-10T00:06:06.830Z,32.74
2023-06-10T00:07:06.789Z,32.75
2023-06-10T00:08:06.799Z,32.75
2023-06-10T00:09:06.802Z,32.77
2023-06-10T00:10:06.767Z,32.76
2023-06-10T00:11:06.760Z,32.76
2023-06-10T00:12:06.769Z,32.75
2023-06-10T00:13:06.736Z,32.76
2023-06-10T00:14:06.731Z,32.77
2023-06-10T00:15:07.046Z,32.77
2023-06-10T00:16:06.721Z,32.77
2023-06-10T00:17:06.685Z,32.78
2023-06-10T00:18:06.739Z,32.78
2023-06-10T00:19:06.672Z,32.77
2023-06-10T00:20:06.654Z,32.75
2023-06-10T00:21:06.747Z,32.76
2023-06-10T00:22:06.725Z,32.76
2023-06-10T00:23:06.717Z,32.78
2023-06-10T00:24:06.788Z,32.76
2023-06-10T00:25:06.918Z,32.76
2023-06-10T00:26:06.749Z,32.77
2023-06-10T00:27:06.739Z,32.76
2023-06-10T00:28:06.742Z,32.78
2023-06-10T00:29:06.773Z,32.77
2023-06-10T00:30:06.723Z,32.77
2023-06-10T00:31:06.702Z,32.76
2023-06-10T00:32:06.781Z,32.76
2023-06-10T00:33:06.887Z,32.80
2023-06-10T00:34:06.970Z,32.77
2023-06-10T00:35:07.537Z,32.78
2023-06-10T00:36:07.095Z,32.75
2023-06-10T00:37:07.040Z,32.77
2023-06-10T00:38:07.019Z,32.78
2023-06-10T00:39:07.016Z,32.77
2023-06-10T00:40:07.007Z,32.78
2023-06-10T00:41:06.991Z,32.76
2023-06-10T00:42:06.982Z,32.79
2023-06-10T00:43:07.023Z,32.78
2023-06-10T00:44:07.003Z,32.78
2023-06-10T00:45:07.348Z,32.77
2023-06-10T00:46:07.110Z,32.78
2023-06-10T00:47:07.077Z,32.76
2023-06-10T00:48:07.099Z,32.78
2023-06-10T00:49:07.068Z,32.76
2023-06-10T00:50:07.061Z,32.78
2023-06-10T00:51:07.099Z,32.76
2023-06-10T00:52:07.074Z,32.79
2023-06-10T00:53:07.085Z,32.78
2023-06-10T00:54:07.079Z,32.76
2023-06-10T00:55:07.383Z,32.77
2023-06-10T00:56:07.039Z,32.78
2023-06-10T00:57:07.059Z,32.77
2023-06-10T00:58:07.026Z,32.79
2023-06-10T00:59:06.988Z,32.77
2023-06-10T01:00:06.982Z,32.76
2023-06-10T01:01:06.987Z,32.78
2023-06-10T01:02:06.959Z,32.79
2023-06-10T01:03:07.044Z,32.77
2023-06-10T01:04:06.907Z,32.80
2023-06-10T01:05:07.272Z,32.78
2023-06-10T01:06:06.895Z,32.82
2023-06-10T01:07:06.853Z,32.80
2023-06-10T01:08:06.855Z,32.81
2023-06-10T01:09:06.834Z,32.80
2023-06-10T01:10:06.840Z,32.79
2023-06-10T01:11:06.803Z,32.78
2023-06-10T01:12:06.788Z,32.81
2023-06-10T01:13:06.768Z,32.80
2023-06-10T01:14:06.768Z,32.79
2023-06-10T01:15:06.839Z,32.80
2023-06-10T01:16:06.728Z,32.79
2023-06-10T01:17:06.715Z,32.78
2023-06-10T01:18:06.739Z,32.80
2023-06-10T01:19:06.698Z,32.79
2023-06-10T01:20:06.671Z,32.79
2023-06-10T01:21:06.662Z,32.80
2023-06-10T01:22:06.738Z,32.76
2023-06-10T01:23:06.618Z,32.77
2023-06-10T01:24:06.645Z,32.79
2023-06-10T01:25:06.806Z,32.78
2023-06-10T01:26:06.618Z,32.78
2023-06-10T01:27:06.574Z,32.80
2023-06-10T01:28:06.555Z,32.78
2023-06-10T01:29:06.546Z,32.76
2023-06-10T01:30:06.535Z,32.78
2023-06-10T01:31:06.544Z,32.77
2023-06-10T01:32:06.517Z,32.78
2023-06-10T01:33:06.533Z,32.82
2023-06-10T01:34:06.520Z,32.79
2023-06-10T01:35:06.748Z,32.79
2023-06-10T01:36:06.717Z,32.78
2023-06-10T01:37:06.811Z,32.78
2023-06-10T01:38:06.909Z,32.79
2023-06-10T01:39:07.036Z,32.77
2023-06-10T01:40:07.196Z,32.79
2023-06-10T01:41:07.169Z,32.77
2023-06-10T01:42:07.072Z,32.78
2023-06-10T01:43:07.093Z,32.79
2023-06-10T01:44:07.125Z,32.80
2023-06-10T01:45:07.522Z,32.79
2023-06-10T01:46:07.206Z,32.80
2023-06-10T01:47:07.210Z,32.78
2023-06-10T01:48:07.162Z,32.77
2023-06-10T01:49:07.158Z,32.79
2023-06-10T01:50:07.115Z,32.79
2023-06-10T01:51:07.158Z,32.77
2023-06-10T01:52:07.189Z,32.77
2023-06-10T01:53:07.130Z,32.76
2023-06-10T01:54:07.107Z,32.77
2023-06-10T01:55:07.442Z,32.79
2023-06-10T01:56:07.205Z,32.78
2023-06-10T01:57:07.247Z,32.79
2023-06-10T01:58:07.192Z,32.80
2023-06-10T01:59:07.200Z,32.79
2023-06-10T02:00:07.127Z,32.78
2023-06-10T02:01:07.176Z,32.80
2023-06-10T02:02:07.127Z,32.80
2023-06-10T02:03:07.252Z,32.81
2023-06-10T02:04:07.326Z,32.78
2023-06-10T02:05:07.327Z,32.79
2023-06-10T02:06:07.297Z,32.80
2023-06-10T02:07:07.223Z,32.81
2023-06-10T02:08:07.178Z,32.81
2023-06-10T02:09:07.167Z,32.80
2023-06-10T02:10:07.156Z,32.80
2023-06-10T02:11:07.139Z,32.81
2023-06-10T02:12:07.258Z,32.80
2023-06-10T02:13:07.174Z,32.80
2023-06-10T02:14:07.174Z,32.82
2023-06-10T02:15:07.395Z,32.80
2023-06-10T02:16:07.231Z,32.81
2023-06-10T02:17:07.171Z,32.80
2023-06-10T02:18:07.233Z,32.81
2023-06-10T02:19:07.808Z,32.81
2023-06-10T02:20:07.184Z,32.81
2023-06-10T02:21:07.184Z,32.81
2023-06-10T02:22:07.189Z,32.83
2023-06-10T02:23:07.215Z,32.81
2023-06-10T02:24:07.232Z,32.82
2023-06-10T02:25:07.414Z,32.80
2023-06-10T02:26:07.225Z,32.82
2023-06-10T02:27:07.230Z,32.83
2023-06-10T02:28:07.240Z,32.80
2023-06-10T02:29:07.263Z,32.82
2023-06-10T02:30:07.266Z,32.81
2023-06-10T02:31:07.281Z,32.84
2023-06-10T02:32:10.457Z,32.83
2023-06-10T02:33:07.315Z,32.82
2023-06-10T02:34:07.267Z,32.83
2023-06-10T02:35:07.515Z,32.83
2023-06-10T02:36:07.242Z,32.83
2023-06-10T02:37:07.215Z,32.84
2023-06-10T02:38:07.217Z,32.82
2023-06-10T02:39:07.178Z,32.84
2023-06-10T02:40:07.194Z,32.82
2023-06-10T02:41:07.144Z,32.83
2023-06-10T02:42:07.131Z,32.84
2023-06-10T02:43:07.167Z,32.81
2023-06-10T02:44:07.086Z,32.83
2023-06-10T02:45:07.293Z,32.84
2023-06-10T02:46:07.086Z,32.83
2023-06-10T02:47:07.026Z,32.82
2023-06-10T02:48:07.032Z,32.83
2023-06-10T02:49:06.992Z,32.82
2023-06-10T02:50:06.996Z,32.84
2023-06-10T02:51:06.975Z,32.81
2023-06-10T02:52:06.954Z,32.83
2023-06-10T02:53:06.932Z,32.83
2023-06-10T02:54:06.905Z,32.82
2023-06-10T02:55:07.123Z,32.82
2023-06-10T02:56:06.892Z,32.82
2023-06-10T02:57:06.892Z,32.85
2023-06-10T02:58:06.854Z,32.82
2023-06-10T02:59:06.851Z,32.83
2023-06-10T03:00:06.843Z,32.83
2023-06-10T03:01:06.848Z,32.83
2023-06-10T03:02:06.818Z,32.84
2023-06-10T03:03:06.852Z,32.83
2023-06-10T03:04:06.865Z,32.84
2023-06-10T03:05:07.158Z,32.73
2023-06-10T03:06:06.750Z,32.64
2023-06-10T03:07:06.760Z,32.61
2023-06-10T03:08:06.787Z,32.59
2023-06-10T03:09:06.800Z,32.48
2023-06-10T03:10:06.826Z,32.42
2023-06-10T03:11:06.854Z,32.34
2023-06-10T03:12:06.858Z,32.30
2023-06-10T03:13:06.882Z,32.23
2023-06-10T03:14:06.904Z,32.19
2023-06-10T03:15:07.088Z,32.18
2023-06-10T03:16:06.979Z,32.16
2023-06-10T03:17:06.962Z,32.14
2023-06-10T03:18:07.019Z,32.08
2023-06-10T03:19:07.076Z,32.09
2023-06-10T03:20:07.073Z,32.11
2023-06-10T03:21:07.077Z,32.08
2023-06-10T03:22:07.104Z,32.10
2023-06-10T03:23:07.147Z,32.09
2023-06-10T03:24:07.236Z,32.10
2023-06-10T03:25:07.592Z,32.09
2023-06-10T03:26:07.263Z,32.09
2023-06-10T03:27:07.310Z,32.12
2023-06-10T03:28:07.363Z,32.13
2023-06-10T03:29:07.385Z,32.10
2023-06-10T03:30:07.450Z,32.09
2023-06-10T03:31:07.498Z,32.11
2023-06-10T03:32:07.569Z,32.14
2023-06-10T03:33:07.627Z,32.15
2023-06-10T03:34:07.626Z,32.17
2023-06-10T03:35:08.041Z,32.16
2023-06-10T03:36:07.718Z,32.12
2023-06-10T03:37:07.771Z,32.14
2023-06-10T03:38:07.831Z,32.14
2023-06-10T03:39:07.888Z,32.15
2023-06-10T03:40:07.951Z,32.13
2023-06-10T03:41:08.009Z,32.16
2023-06-10T03:42:08.076Z,32.19
2023-06-10T03:43:08.125Z,32.19
2023-06-10T03:44:08.179Z,32.20
2023-06-10T03:45:08.750Z,32.18
2023-06-10T03:46:08.301Z,32.17
2023-06-10T03:47:08.334Z,32.16
2023-06-10T03:48:08.484Z,32.16
2023-06-10T03:49:08.459Z,32.22
2023-06-10T03:50:08.504Z,32.23
2023-06-10T03:51:08.566Z,32.24
2023-06-10T03:52:08.598Z,32.23
2023-06-10T03:53:08.662Z,32.25
2023-06-10T03:54:08.767Z,32.25
2023-06-10T03:55:08.989Z,32.21
2023-06-10T03:56:08.848Z,32.25
2023-06-10T03:57:08.895Z,32.25
2023-06-10T03:58:08.984Z,32.25
2023-06-10T03:59:09.034Z,32.26
2023-06-10T04:00:09.097Z,32.28
2023-06-10T04:01:09.137Z,32.29
2023-06-10T04:02:09.184Z,32.34
2023-06-10T04:03:09.226Z,32.33
2023-06-10T04:04:09.119Z,32.39
2023-06-10T04:05:09.338Z,32.38
2023-06-10T04:06:09.138Z,32.39
2023-06-10T04:07:09.103Z,32.38
2023-06-10T04:08:09.095Z,32.39
2023-06-10T04:09:09.116Z,32.38
2023-06-10T04:10:09.091Z,32.43
2023-06-10T04:11:09.090Z,32.43
2023-06-10T04:12:09.076Z,32.45
2023-06-10T04:13:09.075Z,32.47
2023-06-10T04:14:09.107Z,32.47
2023-06-10T04:15:09.352Z,32.47
2023-06-10T04:16:09.057Z,32.50
2023-06-10T04:17:09.100Z,32.48
2023-06-10T04:18:09.075Z,32.54
2023-06-10T04:19:09.037Z,32.52
2023-06-10T04:20:09.063Z,32.54
2023-06-10T04:21:09.035Z,32.56
2023-06-10T04:22:09.026Z,32.58
2023-06-10T04:23:09.048Z,32.57
2023-06-10T04:24:09.108Z,32.59
2023-06-10T04:25:09.271Z,32.62
2023-06-10T04:26:09.058Z,32.63
2023-06-10T04:27:09.066Z,32.65
2023-06-10T04:28:09.067Z,32.65
2023-06-10T04:29:09.068Z,32.66
2023-06-10T04:30:09.086Z,32.66
2023-06-10T04:31:09.195Z,32.66
2023-06-10T04:32:09.114Z,32.68
2023-06-10T04:33:09.230Z,32.69
2023-06-10T04:34:09.146Z,32.70
2023-06-10T04:35:09.308Z,32.70
2023-06-10T04:36:09.168Z,32.75
2023-06-10T04:37:09.177Z,32.76
2023-06-10T04:38:09.178Z,32.76
2023-06-10T04:39:09.164Z,32.81
2023-06-10T04:40:09.156Z,32.82
2023-06-10T04:41:09.169Z,32.85
2023-06-10T04:42:09.122Z,32.88
2023-06-10T04:43:09.132Z,32.85
2023-06-10T04:44:09.102Z,32.86
2023-06-10T04:45:09.459Z,32.87
2023-06-10T04:46:09.456Z,32.92
2023-06-10T04:47:09.064Z,32.90
2023-06-10T04:48:09.107Z,32.92
2023-06-10T04:49:09.040Z,32.94
2023-06-10T04:50:09.037Z,32.97
2023-06-10T04:51:09.028Z,32.97
2023-06-10T04:52:09.023Z,33.03
2023-06-10T04:53:09.018Z,33.03
2023-06-10T04:54:09.045Z,33.07
2023-06-10T04:55:09.234Z,33.08
2023-06-10T04:56:09.081Z,33.13
2023-06-10T04:57:09.077Z,33.14
2023-06-10T04:58:09.012Z,33.18
2023-06-10T04:59:09.023Z,33.23
2023-06-10T05:00:09.073Z,33.23
2023-06-10T05:01:09.014Z,33.24
2023-06-10T05:02:09.095Z,33.28
2023-06-10T05:03:09.089Z,33.33
2023-06-10T05:04:09.153Z,33.31
2023-06-10T05:05:09.340Z,33.34
2023-06-10T05:06:09.103Z,33.34
2023-06-10T05:07:09.303Z,33.38
2023-06-10T05:08:09.328Z,33.37
2023-06-10T05:09:09.168Z,33.41
2023-06-10T05:10:09.269Z,33.43
2023-06-10T05:11:09.303Z,33.44
2023-06-10T05:12:09.313Z,33.50
2023-06-10T05:13:09.272Z,33.52
2023-06-10T05:14:09.279Z,33.47
2023-06-10T05:15:09.682Z,33.45
2023-06-10T05:16:09.372Z,33.52
2023-06-10T05:17:09.365Z,33.55
2023-06-10T05:18:09.474Z,33.55
2023-06-10T05:19:09.408Z,33.60
2023-06-10T05:20:09.447Z,33.59
2023-06-10T05:21:09.462Z,33.58
2023-06-10T05:22:09.555Z,33.65
2023-06-10T05:23:09.512Z,33.70
2023-06-10T05:24:09.585Z,33.69
2023-06-10T05:25:09.950Z,33.67
2023-06-10T05:26:09.595Z,33.76
2023-06-10T05:27:09.633Z,33.75
2023-06-10T05:28:09.660Z,33.78
2023-06-10T05:29:09.679Z,33.82
2023-06-10T05:30:09.703Z,33.86
2023-06-10T05:31:09.751Z,33.90
2023-06-10T05:32:09.921Z,33.89
2023-06-10T05:33:09.892Z,33.96
2023-06-10T05:34:09.812Z,33.94
2023-06-10T05:35:10.057Z,33.98
2023-06-10T05:36:09.911Z,33.95
2023-06-10T05:37:09.979Z,34.09
2023-06-10T05:38:10.064Z,34.05
2023-06-10T05:39:09.937Z,34.08
2023-06-10T05:40:09.965Z,34.08
2023-06-10T05:41:09.999Z,34.13
2023-06-10T05:42:10.039Z,34.19
2023-06-10T05:43:10.074Z,34.19
2023-06-10T05:44:11.921Z,34.22
2023-06-10T05:45:10.337Z,34.21
2023-06-10T05:46:10.258Z,34.32
2023-06-10T05:47:10.073Z,34.31
2023-06-10T05:48:10.126Z,34.33
2023-06-10T05:49:10.046Z,34.39
2023-06-10T05:50:10.041Z,34.36
2023-06-10T05:51:10.036Z,34.47
2023-06-10T05:52:10.054Z,34.47
2023-06-10T05:53:10.064Z,34.44
2023-06-10T05:54:10.041Z,34.55
2023-06-10T05:55:10.429Z,34.52
2023-06-10T05:56:10.041Z,34.52
2023-06-10T05:57:10.057Z,34.56
2023-06-10T05:58:10.029Z,34.58
2023-06-10T05:59:09.993Z,34.65
2023-06-10T06:00:10.003Z,34.71
2023-06-10T06:01:10.003Z,34.82
2023-06-10T06:02:10.020Z,34.78
2023-06-10T06:03:10.155Z,34.79
2023-06-10T06:04:10.027Z,34.80
2023-06-10T06:05:10.351Z,34.88
2023-06-10T06:06:09.964Z,34.89
2023-06-10T06:07:09.949Z,34.92
2023-06-10T06:08:09.951Z,34.82
2023-06-10T06:09:09.940Z,34.95
2023-06-10T06:10:09.957Z,34.98
2023-06-10T06:11:09.939Z,35.02
2023-06-10T06:12:09.944Z,35.04
2023-06-10T06:13:09.936Z,35.00
2023-06-10T06:14:09.906Z,35.14
2023-06-10T06:15:10.089Z,35.13
2023-06-10T06:16:09.902Z,35.21
2023-06-10T06:17:09.856Z,35.13
2023-06-10T06:18:09.903Z,35.22
2023-06-10T06:19:09.842Z,35.33
2023-06-10T06:20:09.854Z,35.34
2023-06-10T06:21:09.832Z,35.42
2023-06-10T06:22:09.818Z,35.36
2023-06-10T06:23:09.811Z,35.34
2023-06-10T06:24:09.866Z,35.52
2023-06-10T06:25:10.280Z,35.51
2023-06-10T06:26:09.780Z,35.50
2023-06-10T06:27:09.771Z,35.55
2023-06-10T06:28:09.800Z,35.40
2023-06-10T06:29:09.746Z,35.58
2023-06-10T06:30:09.748Z,35.61
2023-06-10T06:31:09.772Z,35.52
2023-06-10T06:32:09.712Z,35.55
2023-06-10T06:33:09.754Z,35.65
2023-06-10T06:34:09.684Z,35.53
2023-06-10T06:35:10.099Z,35.58
2023-06-10T06:36:09.651Z,35.61
2023-06-10T06:37:09.629Z,35.60
2023-06-10T06:38:09.638Z,35.76
2023-06-10T06:39:09.635Z,35.75
2023-06-10T06:40:09.610Z,35.85
2023-06-10T06:41:09.594Z,35.95
2023-06-10T06:42:09.606Z,35.92
2023-06-10T06:43:09.580Z,35.88
2023-06-10T06:44:09.618Z,35.97
2023-06-10T06:45:09.766Z,35.97
2023-06-10T06:46:09.552Z,36.12
2023-06-10T06:47:09.558Z,36.30
2023-06-10T06:48:09.673Z,36.19
2023-06-10T06:49:09.520Z,36.20
2023-06-10T06:50:09.514Z,36.33
2023-06-10T06:51:09.534Z,36.30
2023-06-10T06:52:09.494Z,36.44
2023-06-10T06:53:09.503Z,36.41
2023-06-10T06:54:09.484Z,36.35
2023-06-10T06:55:09.810Z,36.38
2023-06-10T06:56:09.474Z,36.35
2023-06-10T06:57:09.461Z,36.43
2023-06-10T06:58:09.462Z,36.35
2023-06-10T06:59:09.458Z,36.42
2023-06-10T07:00:09.431Z,36.41
2023-06-10T07:01:09.518Z,36.44
2023-06-10T07:02:09.430Z,36.34
2023-06-10T07:03:09.528Z,36.30
2023-06-10T07:04:09.418Z,36.26
2023-06-10T07:05:09.712Z,36.35
2023-06-10T07:06:09.371Z,36.28
2023-06-10T07:07:09.365Z,36.27
2023-06-10T07:08:09.363Z,36.30
2023-06-10T07:09:09.356Z,36.30
2023-06-10T07:10:09.357Z,36.25
2023-06-10T07:11:09.334Z,36.18
2023-06-10T07:12:09.340Z,36.10
2023-06-10T07:13:09.326Z,36.15
2023-06-10T07:14:09.305Z,36.06
2023-06-10T07:15:09.644Z,36.11
2023-06-10T07:16:09.287Z,36.01
2023-06-10T07:17:09.449Z,35.97
2023-06-10T07:18:09.362Z,36.00
2023-06-10T07:19:09.282Z,35.93
2023-06-10T07:20:09.285Z,35.84
2023-06-10T07:21:09.273Z,35.78
2023-06-10T07:22:09.250Z,35.86
2023-06-10T07:23:09.256Z,35.76
2023-06-10T07:24:09.250Z,35.74
2023-06-10T07:25:09.543Z,35.69
2023-06-10T07:26:09.214Z,35.62
2023-06-10T07:27:09.199Z,35.63
2023-06-10T07:28:09.200Z,35.65
2023-06-10T07:29:09.185Z,35.68
2023-06-10T07:30:09.163Z,35.65
2023-06-10T07:31:09.222Z,35.56
2023-06-10T07:32:09.156Z,35.55
2023-06-10T07:33:09.244Z,35.56
2023-06-10T07:34:09.178Z,35.64
2023-06-10T07:35:09.475Z,35.62
2023-06-10T07:36:09.126Z,35.61
2023-06-10T07:37:09.158Z,35.64
2023-06-10T07:38:09.195Z,35.66
2023-06-10T07:39:09.246Z,35.68
2023-06-10T07:40:09.286Z,35.67
2023-06-10T07:41:09.337Z,35.59
2023-06-10T07:42:09.367Z,35.64
2023-06-10T07:43:09.421Z,35.59
2023-06-10T07:44:09.449Z,35.52
2023-06-10T07:45:09.623Z,35.57
2023-06-10T07:46:09.565Z,35.55
2023-06-10T07:47:09.605Z,35.55
2023-06-10T07:48:09.690Z,35.55
2023-06-10T07:49:09.704Z,35.42
2023-06-10T07:50:09.767Z,35.42
2023-06-10T07:51:09.823Z,35.40
2023-06-10T07:52:09.882Z,35.44
2023-06-10T07:53:09.966Z,35.39
2023-06-10T07:54:10.002Z,35.41
2023-06-10T07:55:10.166Z,35.30
2023-06-10T07:56:10.127Z,35.37
2023-06-10T07:57:10.170Z,35.38
2023-06-10T07:58:10.162Z,35.35
2023-06-10T07:59:10.130Z,35.33
2023-06-10T08:00:10.138Z,35.23
2023-06-10T08:01:10.107Z,35.23
2023-06-10T08:02:10.086Z,35.25
2023-06-10T08:03:10.176Z,35.15
2023-06-10T08:04:10.171Z,35.16
2023-06-10T08:05:10.320Z,35.12
2023-06-10T08:06:10.031Z,35.11
2023-06-10T08:07:10.068Z,35.07
2023-06-10T08:08:10.121Z,35.02
2023-06-10T08:09:10.168Z,35.03
2023-06-10T08:10:10.234Z,35.00
2023-06-10T08:11:10.259Z,34.93
2023-06-10T08:12:10.304Z,34.96
2023-06-10T08:13:10.349Z,34.96
2023-06-10T08:14:10.410Z,35.02
2023-06-10T08:15:10.804Z,34.96
2023-06-10T08:16:10.500Z,34.87
2023-06-10T08:17:10.512Z,34.86
2023-06-10T08:18:10.645Z,34.84
2023-06-10T08:19:10.613Z,34.77
2023-06-10T08:20:10.620Z,34.73
2023-06-10T08:21:10.656Z,34.76
2023-06-10T08:22:10.693Z,34.66
2023-06-10T08:23:10.742Z,34.74
2023-06-10T08:24:10.875Z,34.59
2023-06-10T08:25:11.148Z,34.70
2023-06-10T08:26:10.851Z,34.64
2023-06-10T08:27:10.876Z,34.66
2023-06-10T08:28:10.928Z,34.63
2023-06-10T08:29:10.938Z,34.60
2023-06-10T08:30:10.983Z,34.61
2023-06-10T08:31:11.005Z,34.56
2023-06-10T08:32:11.082Z,34.50
2023-06-10T08:33:11.141Z,34.54
2023-06-10T08:34:11.028Z,34.52
2023-06-10T08:35:11.222Z,34.49
2023-06-10T08:36:11.002Z,34.50
2023-06-10T08:37:10.981Z,34.51
2023-06-10T08:38:10.966Z,34.48
2023-06-10T08:39:10.941Z,34.41
2023-06-10T08:40:10.920Z,34.37
2023-06-10T08:41:10.918Z,34.35
2023-06-10T08:42:10.922Z,34.36
2023-06-10T08:43:10.901Z,34.33
2023-06-10T08:44:10.850Z,34.36
2023-06-10T08:45:11.128Z,34.35
2023-06-10T08:46:10.818Z,34.30
2023-06-10T08:47:10.804Z,34.31
2023-06-10T08:48:10.875Z,34.42
2023-06-10T08:49:10.839Z,34.41
2023-06-10T08:50:12.711Z,34.43
2023-06-10T08:51:10.739Z,34.45
2023-06-10T08:52:10.728Z,34.49
2023-06-10T08:53:10.727Z,34.43
2023-06-10T08:54:10.698Z,34.49
2023-06-10T08:55:10.920Z,34.50
2023-06-10T08:56:10.679Z,34.47
2023-06-10T08:57:10.666Z,34.52
2023-06-10T08:58:10.637Z,34.53
2023-06-10T08:59:10.677Z,34.54
2023-06-10T09:00:10.887Z,34.58
2023-06-10T09:01:10.782Z,34.58
2023-06-10T09:02:10.710Z,34.66
2023-06-10T09:03:10.776Z,34.61
2023-06-10T09:04:10.723Z,34.68
2023-06-10T09:05:10.654Z,34.69
2023-06-10T09:06:10.645Z,34.63
2023-06-10T09:07:10.600Z,34.73
2023-06-10T09:08:10.589Z,34.63
2023-06-10T09:09:10.572Z,34.61
2023-06-10T09:10:10.767Z,34.54
2023-06-10T09:11:10.558Z,34.49
2023-06-10T09:12:10.562Z,34.45
2023-06-10T09:13:10.529Z,34.47
2023-06-10T09:14:10.509Z,34.44
2023-06-10T09:15:10.498Z,34.41
2023-06-10T09:16:10.520Z,34.39
2023-06-10T09:17:10.508Z,34.38
2023-06-10T09:18:10.613Z,34.35
2023-06-10T09:19:10.569Z,34.31
2023-06-10T09:20:11.232Z,34.28
2023-06-10T09:21:10.538Z,34.26
2023-06-10T09:22:10.573Z,34.23
2023-06-10T09:23:10.576Z,34.25
2023-06-10T09:24:10.582Z,34.20
2023-06-10T09:25:10.507Z,34.21
2023-06-10T09:26:10.835Z,34.20
2023-06-10T09:27:10.529Z,34.17
2023-06-10T09:28:10.457Z,34.15
2023-06-10T09:29:10.586Z,34.14
2023-06-10T09:30:10.591Z,34.14
2023-06-10T09:31:10.453Z,34.08
2023-06-10T09:32:10.778Z,34.09
2023-06-10T09:33:10.436Z,34.10
2023-06-10T09:34:10.326Z,34.04
2023-06-10T09:35:10.284Z,34.04
2023-06-10T09:36:10.308Z,34.04
2023-06-10T09:37:10.299Z,34.02
2023-06-10T09:38:10.920Z,34.01
2023-06-10T09:39:10.228Z,33.98
2023-06-10T09:40:10.583Z,33.93
2023-06-10T09:41:10.175Z,33.93
2023-06-10T09:42:10.222Z,33.95
2023-06-10T09:43:10.161Z,33.91
2023-06-10T09:44:10.340Z,33.94
2023-06-10T09:45:10.108Z,33.97
2023-06-10T09:46:10.121Z,33.97
2023-06-10T09:47:10.073Z,33.99
2023-06-10T09:48:10.108Z,33.98
2023-06-10T09:49:10.054Z,33.96
2023-06-10T09:50:11.413Z,33.96
2023-06-10T09:51:10.091Z,33.97
2023-06-10T09:52:10.035Z,34.01
2023-06-10T09:53:10.001Z,34.00
2023-06-10T09:54:09.952Z,34.04
2023-06-10T09:55:09.943Z,34.01
2023-06-10T09:56:11.086Z,34.02
2023-06-10T09:57:09.956Z,34.01
2023-06-10T09:58:09.962Z,34.00
2023-06-10T09:59:09.864Z,34.02
2023-06-10T10:00:10.193Z,34.01
2023-06-10T10:01:09.844Z,34.01
2023-06-10T10:02:11.349Z,34.01
2023-06-10T10:03:09.833Z,34.03
2023-06-10T10:04:09.796Z,33.99
2023-06-10T10:05:10.051Z,33.99
2023-06-10T10:06:09.786Z,33.98
2023-06-10T10:07:09.750Z,33.97
2023-06-10T10:08:09.734Z,34.00
2023-06-10T10:09:09.792Z,33.99
2023-06-10T10:10:09.715Z,33.96
2023-06-10T10:11:09.713Z,33.97
2023-06-10T10:12:09.705Z,33.96
2023-06-10T10:13:09.747Z,33.98
2023-06-10T10:14:10.878Z,33.97
2023-06-10T10:15:10.029Z,33.99
2023-06-10T10:16:09.762Z,33.97
2023-06-10T10:17:09.863Z,33.98
2023-06-10T10:18:10.104Z,33.96
2023-06-10T10:19:09.698Z,33.97
2023-06-10T10:20:09.673Z,33.93
2023-06-10T10:21:09.649Z,33.98
2023-06-10T10:22:09.622Z,33.93
2023-06-10T10:23:09.626Z,33.95
2023-06-10T10:24:09.605Z,33.94
2023-06-10T10:25:09.902Z,33.94
2023-06-10T10:26:10.871Z,33.92
2023-06-10T10:27:09.597Z,33.93
2023-06-10T10:28:09.546Z,33.93
2023-06-10T10:29:09.513Z,33.92
2023-06-10T10:30:09.592Z,33.90
2023-06-10T10:31:09.518Z,33.92
2023-06-10T10:32:09.676Z,33.90
2023-06-10T10:33:11.054Z,33.89
2023-06-10T10:34:09.779Z,33.90
2023-06-10T10:35:09.918Z,33.88
2023-06-10T10:36:09.625Z,33.86
2023-06-10T10:37:09.678Z,33.88
2023-06-10T10:38:09.586Z,33.86
2023-06-10T10:39:09.565Z,33.89
2023-06-10T10:40:09.566Z,33.87
2023-06-10T10:41:09.534Z,33.89
2023-06-10T10:42:09.622Z,33.85
2023-06-10T10:43:09.512Z,33.84
2023-06-10T10:44:09.497Z,33.83
2023-06-10T10:45:09.738Z,33.82
2023-06-10T10:46:09.473Z,33.79
2023-06-10T10:47:09.430Z,33.82
2023-06-10T10:48:09.458Z,33.77
2023-06-10T10:49:09.432Z,33.77
2023-06-10T10:50:10.039Z,33.75
2023-06-10T10:51:09.372Z,33.73
2023-06-10T10:52:09.357Z,33.73
2023-06-10T10:53:09.362Z,33.71
2023-06-10T10:54:09.304Z,33.69
2023-06-10T10:55:09.525Z,33.67
2023-06-10T10:56:09.844Z,33.65
2023-06-10T10:57:09.604Z,33.66
2023-06-10T10:58:09.501Z,33.62
2023-06-10T10:59:09.512Z,33.62
2023-06-10T11:00:09.655Z,33.62
2023-06-10T11:01:09.613Z,33.59
2023-06-10T11:02:09.798Z,33.59
2023-06-10T11:03:11.485Z,33.62
2023-06-10T11:04:09.897Z,33.58
2023-06-10T11:05:10.055Z,33.60
2023-06-10T11:06:09.823Z,33.58
2023-06-10T11:07:09.882Z,33.58
2023-06-10T11:08:09.926Z,33.58
2023-06-10T11:09:10.044Z,33.58
2023-06-10T11:10:10.038Z,33.57
2023-06-10T11:11:10.053Z,33.56
2023-06-10T11:12:10.108Z,33.53
2023-06-10T11:13:10.178Z,33.52
2023-06-10T11:14:10.218Z,33.53
2023-06-10T11:15:10.598Z,33.52
2023-06-10T11:16:10.312Z,33.51
2023-06-10T11:17:10.341Z,33.50
2023-06-10T11:18:10.404Z,33.48
2023-06-10T11:19:10.592Z,33.50
2023-06-10T11:20:10.393Z,33.50
2023-06-10T11:21:10.397Z,33.49
2023-06-10T11:22:10.344Z,33.46
2023-06-10T11:23:10.398Z,33.45
2023-06-10T11:24:10.419Z,33.47
2023-06-10T11:25:10.553Z,33.47
2023-06-10T11:26:10.254Z,33.44
2023-06-10T11:27:10.242Z,33.46
2023-06-10T11:28:10.361Z,33.42
2023-06-10T11:29:10.344Z,33.41
2023-06-10T11:30:10.354Z,33.42
2023-06-10T11:31:10.415Z,33.42
2023-06-10T11:32:10.578Z,33.41
2023-06-10T11:33:10.506Z,33.41
2023-06-10T11:34:10.501Z,33.40
2023-06-10T11:35:10.734Z,33.40
2023-06-10T11:36:10.594Z,33.40
2023-06-10T11:37:10.633Z,33.40
2023-06-10T11:38:10.692Z,33.41
2023-06-10T11:39:10.746Z,33.42
2023-06-10T11:40:10.776Z,33.42
2023-06-10T11:41:10.802Z,33.45
2023-06-10T11:42:10.855Z,33.43
2023-06-10T11:43:10.881Z,33.45
2023-06-10T11:44:10.916Z,33.45
2023-06-10T11:45:11.247Z,33.45
2023-06-10T11:46:11.013Z,33.47
2023-06-10T11:47:11.032Z,33.48
2023-06-10T11:48:11.109Z,33.47
2023-06-10T11:49:11.157Z,33.47
2023-06-10T11:50:11.202Z,33.44
2023-06-10T11:51:11.187Z,33.43
2023-06-10T11:52:11.227Z,33.42
2023-06-10T11:53:11.288Z,33.39
2023-06-10T11:54:11.322Z,33.40
2023-06-10T11:55:11.624Z,33.37
2023-06-10T11:56:11.380Z,33.39
2023-06-10T11:57:11.391Z,33.34
2023-06-10T11:58:11.429Z,33.34
2023-06-10T11:59:11.495Z,33.35
2023-06-10T12:00:11.523Z,33.35
2023-06-10T12:01:13.282Z,33.36
2023-06-10T12:02:11.625Z,33.39
2023-06-10T12:03:11.725Z,33.38
2023-06-10T12:04:11.713Z,33.39
2023-06-10T12:05:12.030Z,33.40
2023-06-10T12:06:11.811Z,33.40
2023-06-10T12:07:11.840Z,33.43
2023-06-10T12:08:11.876Z,33.38
2023-06-10T12:09:22.682Z,33.40
2023-06-10T12:10:26.492Z,33.39
2023-06-10T12:11:12.887Z,33.38
2023-06-10T12:12:11.855Z,33.38
2023-06-10T12:13:11.846Z,33.34
2023-06-10T12:14:11.820Z,33.33
2023-06-10T12:15:12.054Z,33.33
2023-06-10T12:16:11.808Z,33.31
2023-06-10T12:17:11.785Z,33.27
2023-06-10T12:18:11.818Z,33.27
2023-06-10T12:19:11.737Z,33.28
2023-06-10T12:20:11.753Z,33.26
2023-06-10T12:21:11.816Z,33.29
2023-06-10T12:22:11.866Z,33.27
2023-06-10T12:23:11.939Z,33.25
2023-06-10T12:24:12.028Z,33.27
2023-06-10T12:25:12.629Z,33.23
2023-06-10T12:26:11.930Z,33.23
2023-06-10T12:27:11.915Z,33.23
2023-06-10T12:28:11.880Z,33.20
2023-06-10T12:29:11.874Z,33.23
2023-06-10T12:30:11.847Z,33.21
2023-06-10T12:31:11.829Z,33.23
2023-06-10T12:32:11.898Z,33.21
2023-06-10T12:33:11.872Z,33.20
2023-06-10T12:34:11.850Z,33.18
2023-06-10T12:35:12.388Z,33.17
2023-06-10T12:36:11.937Z,33.17
2023-06-10T12:37:11.984Z,33.15
2023-06-10T12:38:12.018Z,33.18
2023-06-10T12:39:12.067Z,33.16
2023-06-10T12:40:12.109Z,33.16
2023-06-10T12:41:12.129Z,33.17
2023-06-10T12:42:12.161Z,33.14
2023-06-10T12:43:12.201Z,33.14
2023-06-10T12:44:12.245Z,33.11
2023-06-10T12:45:12.423Z,33.13
2023-06-10T12:46:12.332Z,33.14
2023-06-10T12:47:12.342Z,33.09
2023-06-10T12:48:12.417Z,33.08
2023-06-10T12:49:12.417Z,33.06
2023-06-10T12:50:12.446Z,33.08
2023-06-10T12:51:12.472Z,33.06
2023-06-10T12:52:12.522Z,33.07